EW7906 Weather Reports


time (UTC)temp
C
wind
direction
speed
KPH
gust
KPH
rain 1hr
cm
rain 24hr
cm
rain mn
cm
humidity
%
barometer
mb
20260502170350 32 49 1.6 12.9 0.00 0.94 0.00 100 1022.7
20260502170115 32 78 0.0 16.1 0.00 0.94 0.00 100 1022.7
20260502164339 31 327 6.4 17.7 0.00 0.94 0.00 100 1022.7
20260502163839 32 327 8.0 17.7 0.00 0.94 0.00 100 1022.7
20260502163338 31 101 4.8 16.1 0.00 0.94 0.00 100 1022.7
20260502163106 31 81 3.2 17.7 0.00 0.94 0.00 100 1022.7
20260502162337 31 345 8.0 22.5 0.00 0.94 0.00 100 1022.7
20260502162104 31 15 3.2 22.5 0.00 0.94 0.00 100 1022.7
20260502161331 30 327 9.7 19.3 0.00 0.94 0.00 100 1022.8
20260502161102 30 337 8.0 12.9 0.00 0.94 0.00 100 1022.8
20260502160937 31 351 0.0 14.5 0.00 0.94 0.00 100 1022.8
20260502152312 30 15 0.0 12.9 0.00 1.04 0.00 100 1022.8
20260502151812 30 348 6.4 14.5 0.00 1.04 0.00 100 1022.7
20260502151312 30 37 9.7 14.5 0.00 1.04 0.00 100 1022.7
20260502150809 29 319 9.7 12.9 0.00 1.07 0.00 100 1022.7
20260502150310 29 343 6.4 12.9 0.00 1.07 0.00 100 1022.6
20260502130554 26 303 0.0 0.0 0.00 1.63 0.00 1 1021.6
20260502123529 25 303 0.0 3.2 0.00 1.65 0.00 45 1021.1
20260502123016 25 303 0.0 4.8 0.00 1.68 0.00 66 1021.1
20260502122511 25 303 0.0 4.8 0.00 1.70 0.00 88 1021.1
20260502122010 25 352 0.0 0.0 0.00 1.70 0.00 100 1020.9
20260502121503 25 352 0.0 0.0 0.00 1.70 0.00 100 1020.7
20260502120957 25 352 0.0 0.0 0.00 1.70 0.00 100 1020.7
20260502120450 25 352 0.0 0.0 0.00 1.73 0.00 100 1020.6
20260502115432 25 352 0.0 0.0 0.00 1.85 0.00 100 1020.3
20260502114929 25 352 0.0 0.0 0.00 2.01 0.00 100 1020.3
20260502114923 24 352 0.0 0.0 0.00 2.06 0.00 96 1020.3
20260502113922 24 352 0.0 0.0 0.00 2.08 0.00 92 1020.2
20260502113411 24 352 0.0 0.0 0.00 2.11 0.00 87 1020.1
20260502113136 24 352 0.0 0.0 0.00 2.11 0.00 76 1020.1
20260502112402 25 352 0.0 0.0 0.00 2.13 0.00 68 1020.1
20260502111902 24 352 0.0 0.0 0.00 2.16 0.00 55 1019.9
20260502111352 24 352 0.0 0.0 0.00 2.18 0.00 52 1019.9
20260502110853 25 352 0.0 0.0 0.00 2.24 0.00 48 1019.9
20260502110344 24 352 0.0 0.0 0.00 2.26 0.00 39 1020.0
20260502105839 24 352 0.0 0.0 0.00 2.26 0.00 29 1019.9
20260502105333 24 352 0.0 0.0 0.00 2.26 0.00 21 1019.8
20260502104828 24 352 0.0 0.0 0.00 2.29 0.00 18 1019.7
20260502104329 24 352 0.0 0.0 0.00 2.31 0.00 16 1019.6
20260502103812 25 352 0.0 0.0 0.00 2.36 0.00 6 1019.5
20260502103303 25 352 0.0 0.0 0.00 2.41 0.00 5 1019.3
20260502102758 25 352 0.0 0.0 0.00 2.44 0.00 5 1019.2
20260502102238 25 352 0.0 0.0 0.00 2.51 0.00 4 1019.2
20260502101729 25 352 0.0 0.0 0.00 2.57 0.00 3 1019.0
20260502101231 25 352 0.0 0.0 0.00 2.64 0.00 3 1019.0
20260502100727 25 352 0.0 0.0 0.00 2.67 0.00 3 1018.9
20260502100226 25 352 0.0 0.0 0.00 2.69 0.00 1 1018.8
20260502091524 25 348 0.0 0.0 0.00 2.84 0.00 100 1018.2
20260502091021 25 348 0.0 0.0 0.00 2.90 0.00 100 1018.2
20260502090513 25 348 0.0 0.0 0.00 2.95 0.00 1 1018.2
20260502071144 25 309 1.6 6.4 0.00 3.05 0.00 18 1018.0
20260502070628 25 19 0.0 6.4 0.00 3.05 0.00 19 1017.9
20260502070126 25 352 0.0 6.4 0.00 3.05 0.00 19 1017.9
20260502065623 25 358 0.0 4.8 0.00 3.05 0.00 21 1017.9
20260502065108 25 354 0.0 0.0 0.00 3.05 0.00 29 1017.8
20260502064837 25 354 0.0 0.0 0.00 3.05 0.00 31 1017.8
20260502064103 25 354 0.0 0.0 0.00 3.05 0.00 36 1017.8
20260502063827 25 354 0.0 0.0 0.00 3.05 0.00 45 1017.9
20260502063052 25 354 0.0 0.0 0.00 3.05 0.00 45 1017.9
20260502062539 25 354 0.0 0.0 0.00 3.05 0.00 44 1018.0
20260502062038 25 354 0.0 0.0 0.00 3.05 0.00 37 1018.0
20260502061756 25 354 0.0 0.0 0.00 3.05 0.00 35 1017.9
20260502061016 25 354 0.0 1.6 0.00 3.05 0.00 39 1018.1
20260502060517 25 354 0.0 6.4 0.00 3.05 0.00 53 1018.1
20260502060016 25 354 1.6 6.4 0.00 3.05 0.00 72 1018.2
20260502055505 25 333 0.0 0.0 0.00 3.05 0.00 84 1018.2
20260502054956 25 333 0.0 0.0 0.00 3.05 0.00 89 1018.2
20260502054455 25 333 0.0 0.0 0.00 3.05 0.00 90 1018.1
20260502053952 25 333 0.0 0.0 0.00 3.05 0.00 87 1018.0
20260502053451 25 333 0.0 0.0 0.00 3.05 0.00 83 1017.9
20260502052939 25 333 0.0 0.0 0.00 3.05 0.00 76 1017.9
20260502052658 25 333 0.0 0.0 0.00 3.05 0.00 73 1017.9
20260502051928 25 333 0.0 0.0 0.00 3.05 0.00 64 1017.8
20260502051422 25 333 0.0 0.0 0.00 3.05 0.00 52 1017.8
20260502050918 25 333 0.0 0.0 0.00 3.05 0.00 42 1017.9
20260502050404 25 333 0.0 0.0 0.00 3.05 0.00 36 1017.8
20260502045859 25 333 0.0 0.0 0.00 3.05 3.05 28 1017.8
20260502045358 25 333 0.0 0.0 0.00 3.05 3.05 23 1017.8
20260502044837 25 333 0.0 0.0 0.00 3.05 3.05 14 1017.8
20260502044303 25 333 0.0 0.0 0.00 3.05 3.05 7 1017.8
20260502043759 25 333 0.0 0.0 0.00 3.07 3.05 5 1017.8
20260502043253 25 333 0.0 0.0 0.00 3.07 3.05 4 1017.8
20260502042744 25 333 0.0 0.0 0.00 3.07 3.05 2 1017.8
20260502042217 25 333 0.0 0.0 0.00 3.07 3.05 1 1017.8
20260502041711 26 333 0.0 4.8 0.00 3.07 3.05 100 1017.8
20260502041203 25 333 0.0 8.0 0.00 3.07 3.05 100 1017.8
20260502040657 26 42 0.0 8.0 0.00 3.07 3.05 100 1017.8
20260502040145 26 0 0.0 0.0 0.00 3.07 3.05 100 1017.7
20260502035626 26 0 0.0 0.0 0.00 3.07 3.05 100 1017.7
20260502035116 26 0 0.0 0.0 0.00 3.07 3.05 100 1017.8
20260502034614 26 0 0.0 0.0 0.00 3.10 3.05 100 1017.9
20260502034108 26 0 0.0 0.0 0.00 3.10 3.05 100 1017.9
20260502033604 26 0 0.0 0.0 0.00 3.10 3.05 100 1018.0
20260502033059 26 0 0.0 3.2 0.00 3.10 3.05 100 1018.0
20260502032542 26 0 0.0 4.8 0.00 3.10 3.05 100 1017.8
20260502032030 25 0 0.0 4.8 0.00 3.10 3.05 100 1017.8
20260502031527 26 351 1.6 4.8 0.00 3.10 3.05 100 1017.7
20260502031011 26 71 0.0 0.0 0.00 3.10 3.05 100 1017.7
20260502030506 26 71 0.0 6.4 0.00 3.12 3.05 100 1017.6
20260502030001 26 71 0.0 9.7 0.00 3.12 3.05 100 1017.5
20260502025457 26 71 0.0 9.7 0.00 3.12 3.05 100 1017.3
20260502024942 26 12 0.0 9.7 0.00 3.15 3.05 100 1017.1
20260502024426 26 12 1.6 12.9 0.00 3.17 3.05 100 1017.1
20260502023925 26 355 3.2 12.9 0.00 3.23 3.05 100 1017.1
20260502023423 26 7 1.6 12.9 0.00 3.33 3.05 100 1017.1
20260502022920 26 348 0.0 12.9 0.00 3.33 3.05 100 1017.0
20260502022415 26 358 1.6 12.9 0.00 3.33 3.05 100 1016.8
20260502021858 26 61 0.0 12.9 0.00 3.33 3.05 100 1016.6
20260502021351 26 25 1.6 12.9 0.00 3.33 3.05 100 1016.6
20260502020850 26 347 1.6 14.5 0.00 3.33 3.05 100 1016.6
20260502020343 25 358 1.6 14.5 0.00 3.33 3.05 100 1016.4
20260502015830 25 81 0.0 22.5 0.00 3.33 3.05 100 1016.3
20260502015328 25 26 0.0 22.5 0.00 3.33 3.05 100 1016.3
20260502014816 25 9 3.2 17.7 0.00 3.33 3.05 100 1016.2
20260502014316 25 42 0.0 12.9 0.00 3.33 3.05 100 1016.0
20260502013852 25 358 0.0 12.9 0.00 3.33 3.05 100 1015.9
20260502013810 25 11 0.0 12.9 0.00 3.33 3.05 100 1015.9
20260502012222 25 1 0.0 19.3 0.00 3.33 3.05 100 1015.7
20260502011721 25 52 3.2 19.3 0.00 3.33 3.05 100 1015.6
20260502011213 25 59 0.0 14.5 0.00 3.33 3.05 100 1015.6
20260502010703 25 66 1.6 14.5 0.00 3.33 3.05 100 1015.4
20260502010157 25 106 3.2 22.5 0.00 3.33 3.05 100 1015.2
20260502005700 25 25 0.0 22.5 0.00 3.33 3.05 100 1015.1
20260502005148 25 49 8.0 20.9 0.03 3.33 3.05 100 1014.9
20260502004642 25 82 3.2 17.7 0.03 3.33 3.05 2 1014.8
20260502004142 25 15 1.6 17.7 0.03 3.33 3.05 3 1014.8
20260502003638 25 46 3.2 14.5 0.03 3.33 3.05 3 1014.8
20260502003129 25 39 1.6 22.5 0.03 3.33 3.05 4 1014.8
20260502002619 25 0 3.2 22.5 0.03 3.33 3.05 4 1014.7
20260502002115 25 14 1.6 19.3 0.03 3.33 3.05 6 1014.6
20260502001614 25 358 0.0 17.7 0.03 3.33 3.05 4 1014.3
20260502001117 26 68 6.4 22.5 0.03 3.33 3.05 6 1014.3
20260502000940 26 358 3.2 22.5 0.03 3.33 3.05 15 1014.1
20260501235602 26 323 1.6 17.7 0.00 3.30 3.02 48 1014.1
20260501235333 26 75 1.6 20.9 0.00 3.30 3.02 55 1014.0
20260501234600 26 53 3.2 24.1 0.00 3.30 3.02 72 1014.0
20260501234330 26 97 4.8 24.1 0.00 3.30 3.02 100 1014.3
20260501233601 26 331 0.0 17.7 0.00 3.30 3.02 100 1014.2
20260501233057 26 336 3.2 20.9 0.00 3.30 3.02 100 1014.3
20260501232557 26 9 0.0 20.9 0.03 3.30 3.02 100 1014.2
20260501232056 26 358 0.0 17.7 0.03 3.30 3.02 100 1014.0
20260501231537 26 329 6.4 17.7 0.03 3.30 3.02 100 1013.8
20260501231037 26 63 1.6 17.7 0.03 3.30 3.02 100 1013.5
20260501230535 26 28 4.8 19.3 0.03 3.30 3.02 100 1013.5
20260501230035 26 358 4.8 19.3 0.05 3.30 3.02 100 1013.3
20260501225535 26 30 4.8 17.7 0.05 3.30 3.02 100 1013.8
20260501225035 26 1 3.2 17.7 0.08 3.30 3.02 100 1013.8
20260501224535 26 14 4.8 22.5 0.10 3.30 3.02 100 1013.6
20260501224030 26 30 3.2 22.5 0.13 3.30 3.02 100 1013.8
20260501223526 26 19 1.6 20.9 0.15 3.30 3.02 100 1013.5
20260501223006 26 14 4.8 19.3 0.20 3.30 3.02 100 1013.1
20260501222458 26 334 0.0 19.3 0.23 3.28 3.00 100 1013.0
20260501222230 26 357 1.6 17.7 0.23 3.28 3.00 100 1013.3
20260501221500 27 341 1.6 16.1 0.25 3.28 3.00 100 1013.5
20260501220955 26 8 1.6 22.5 0.25 3.28 3.00 100 1013.4
20260501220450 26 350 0.0 22.5 0.25 3.28 3.00 100 1013.4
20260501215942 26 50 9.7 22.5 0.23 3.25 2.97 100 1013.4
20260501215448 26 11 0.0 22.5 0.20 3.23 2.95 100 1013.0
20260501215442 26 358 4.8 22.5 0.20 3.23 2.95 100 1013.3
20260501214427 26 347 4.8 22.5 0.18 3.20 2.92 100 1013.1
20260501213926 26 334 3.2 17.7 0.15 3.17 2.90 100 1013.4
20260501213427 25 2 3.2 17.7 0.13 3.15 2.87 100 1013.5
20260501212927 26 12 3.2 27.4 0.08 3.10 2.82 100 1013.5
20260501212426 26 33 3.2 27.4 0.03 3.05 2.77 100 1013.4
20260501211916 26 358 3.2 19.3 0.03 3.05 2.77 100 1012.8
20260501211416 26 299 6.4 19.3 0.00 3.02 2.74 100 1012.3
20260501210917 26 351 1.6 19.3 0.00 3.02 2.74 100 1012.4
20260501210402 26 88 1.6 19.3 0.00 3.02 2.74 96 1012.2
20260501205901 26 1 4.8 19.3 0.03 3.02 2.74 92 1012.3
20260501205401 26 327 0.0 20.9 0.03 3.02 2.74 100 1012.1
20260501204850 26 88 8.0 22.5 0.03 3.02 2.74 100 1011.9
20260501204347 26 30 8.0 22.5 0.03 3.02 2.74 100 1011.7
20260501203846 26 35 0.0 17.7 0.05 3.02 2.74 100 1011.6
20260501203343 26 29 4.8 24.1 0.05 3.02 2.74 100 1011.2
20260501202841 26 22 4.8 24.1 0.08 3.02 2.74 100 1011.6
20260501202612 26 358 6.4 20.9 0.10 3.02 2.74 100 1011.9
20260501201840 26 350 9.7 29.0 0.13 3.02 2.74 100 1011.6
20260501201340 26 28 6.4 29.0 0.15 3.02 2.74 100 1011.0
20260501200837 26 23 6.4 27.4 0.15 3.02 2.74 100 1010.5
20260501200608 26 358 6.4 19.3 0.15 3.02 2.74 100 1011.1
20260501200106 26 337 1.6 14.5 0.13 3.00 2.72 100 1011.0
20260501195335 26 345 0.0 16.1 0.13 3.00 2.72 100 1011.4
20260501194832 26 36 3.2 25.7 0.13 3.00 2.72 100 1011.2
20260501194332 26 106 0.0 25.7 0.13 3.00 2.72 100 1011.1
20260501193832 26 40 4.8 19.3 0.10 2.97 2.69 100 1011.3
20260501193332 26 348 3.2 19.3 0.10 2.97 2.69 100 1011.5
20260501192832 26 336 0.0 19.3 0.08 2.95 2.67 100 1012.0
20260501192328 26 42 1.6 14.5 0.05 2.92 2.64 100 1012.4
20260501191814 26 39 3.2 20.9 0.03 2.87 2.62 100 1012.6
20260501191312 26 341 9.7 20.9 0.08 2.87 2.59 100 1012.8
20260501190813 26 352 8.0 20.9 0.20 2.87 2.59 100 1012.5
20260501190301 26 9 3.2 25.7 0.38 2.90 2.59 100 1011.8
20260501185758 26 4 9.7 25.7 0.43 3.00 2.59 100 1011.0
20260501185258 26 80 6.4 24.1 0.46 3.23 2.59 100 1011.0
20260501184758 26 358 8.0 24.1 0.46 3.43 2.59 100 1010.9
20260501184528 26 29 0.0 20.9 0.46 3.48 2.59 100 1011.0
20260501183757 26 4 6.4 20.9 0.46 3.51 2.59 100 1011.2
20260501183527 26 4 4.8 22.5 0.46 3.56 2.59 100 1011.8
20260501182750 26 8 6.4 22.5 0.48 3.56 2.59 100 1012.4
20260501182249 26 358 0.0 17.7 0.48 3.56 2.59 100 1013.1
20260501181744 26 11 0.0 17.7 0.43 3.51 2.54 100 1013.5
20260501181242 26 348 1.6 12.9 0.36 3.43 2.49 100 1014.2
20260501180733 26 358 3.2 12.9 0.23 3.30 2.39 100 1015.0
20260501180225 26 358 1.6 16.1 0.05 3.12 2.16 100 1014.6
20260501180220 26 352 1.6 16.1 0.10 3.17 2.21 100 1015.1
20260501175218 26 9 4.8 14.5 0.03 3.10 2.13 100 1013.8
20260501174712 27 54 0.0 9.7 0.03 3.10 2.13 100 1013.0
20260501174212 26 11 1.6 14.5 0.03 3.10 2.13 100 1012.6
20260501173702 26 12 4.8 16.1 0.03 3.10 2.13 100 1012.4